San Jon, NM (88434)

5:01 AM MDT on August 21, 2014 (GMT -0600)
Tucumcari Municipal | Change Station
CLOSE
Current Station
Airport
Location: Tucumcari,
Elevation: 4065 ft
Nearby Weather Stations

Elev 4065 ft 35.18 °N, 103.60 °W | Updated 8 minutes ago

Clear
Clear
73 °F
Feels Like 73 °F
N
13
Wind Variable Wind from SSW

Today
High -- | Low -- °F
--% Chance of Precip.
Yesterday
High -- | Low -- °F
Precip. -- in
6:17 AM 7:34 PM
Waning Crescent, 15% visible
Pressure 29.76 in
Visibility 10.0 miles
Clouds Clear
Dew Point 58 °F
Humidity 59%
Rainfall 0.00 in
Snow Depth Not available.
UV 0 out of 12
Pollen 8.80 out of 12
Air Quality Not available.
Flu Activity Not available.
METAR KTCC 211053Z AUTO 21011KT 10SM CLR 23/14 A2997 RMK AO2 SLP076 T02280144

More Conditions Fewer Conditions

Pressure 29.76 in
Visibility 10.0 miles
Clouds Clear
Dew Point 58 °F
Humidity 59%
Rainfall 0.00 in
Snow Depth Not available.
UV 0 out of 12
Pollen 8.80 out of 12
Air Quality Not available.
Flu Activity Not available.
METAR KTCC 211053Z AUTO 21011KT 10SM CLR 23/14 A2997 RMK AO2 SLP076 T02280144

More Conditions Fewer Conditions

10-Day Weather Forecast

Almanac

Astronomy

Aug. 21, 2014 Rise Set
Actual Time 6:17 AM MDT 7:34 PM MDT
Civil Twilight 5:50 AM MDT 8:00 PM MDT
Nautical Twilight 5:19 AM MDT 8:32 PM MDT
Astronomical Twilight 4:46 AM MDT 9:04 PM MDT
Moon 2:53 AM MDT 5:01 PM MDT
Length of Visible Light 14h 09m
Length of Day
13h 16m
Tomorrow will be 2m 2s shorter.
Waning Crescent, 15% of the Moon is Illuminated
Today
Waning Crescent
Aug 25
New
Sep 2
First Quarter
Sep 8
Full
Sep 15
Last Quarter

Today's Extremes

State Highs State Lows

Community

WunderPhotos

Upload Photos

1,745,872 photos uploaded!

Nearby

Snow Depth

Station Depth Elevation
Wesner Springs 2 in 11120 ft
Tolby 0 in 10180 ft
Gallegos Peak 0 in 9800 ft
Santa Fe 0 in 11445 ft
North Costilla 1 in 10600 ft

Earthquake Activity

City Distance Mag. Time & Date
No recent earthquake activity has been reported nearby.
Minimum magnitude displayed is 2.5.

Coastal Water Temperatures

Place Temperature
No Stations Reporting

Nearby Weather Stations